Time;durP1;ratioP1;P1;durP2;ratioP2;P2;SDS_P1;SDS_P2;PMS_P1;PMS_P2;Temp;Humidity;BMP_temperature;BMP_pressure;BME280_temperature;BME280_humidity;BME280_pressure;Samples;Min_cycle;Max_cycle;Signal;HPM_P1;HPM_P2
2022/07/17 00:07:10;;;;;;;2.60;1.53;;;;;;;14.32;77.56;98416.63;18494912;32;20054;-64
2022/07/17 00:17:14;;;;;;;1.50;1.20;;;;;;;14.15;77.18;98420.47;18505888;32;20121;-64
2022/07/17 00:27:16;;;;;;;2.03;1.50;;;;;;;14.05;77.90;98417.78;18505903;32;20094;-64
2022/07/17 00:37:18;;;;;;;2.23;1.43;;;;;;;13.87;78.11;98414.53;18491511;32;20049;-64
2022/07/17 00:47:21;;;;;;;2.70;1.40;;;;;;;13.74;79.25;98415.06;18504929;32;20079;-64
2022/07/17 00:57:26;;;;;;;3.37;1.80;;;;;;;13.61;80.13;98423.75;18490017;32;20080;-64
2022/07/17 01:07:28;;;;;;;3.77;1.50;;;;;;;13.49;80.76;98424.84;18489129;32;20046;-64
2022/07/17 01:17:31;;;;;;;3.33;1.80;;;;;;;13.38;81.63;98418.59;18488709;32;20469;-64
2022/07/17 01:27:33;;;;;;;1.27;1.13;;;;;;;13.34;83.17;98427.53;18500503;32;20053;-64
2022/07/17 01:37:36;;;;;;;2.13;1.70;;;;;;;13.26;83.46;98417.19;18501784;32;20049;-64
2022/07/17 01:47:38;;;;;;;3.37;1.97;;;;;;;13.18;83.87;98413.94;18501189;32;20053;-64
2022/07/17 01:57:41;;;;;;;3.20;1.83;;;;;;;13.12;84.20;98419.62;18500401;32;20112;-64
2022/07/17 02:07:44;;;;;;;3.03;1.80;;;;;;;13.06;85.02;98429.66;18499935;32;20383;-64
2022/07/17 02:17:46;;;;;;;2.60;2.07;;;;;;;12.96;84.63;98405.97;18499714;32;20124;-64
2022/07/17 02:27:48;;;;;;;4.43;1.73;;;;;;;12.88;86.03;98418.19;18484932;32;20065;-64
2022/07/17 02:37:51;;;;;;;3.40;2.00;;;;;;;12.79;85.84;98408.94;18497870;32;20096;-64
2022/07/17 02:47:54;;;;;;;2.53;2.10;;;;;;;12.64;85.85;98403.44;18497561;32;20116;-64
2022/07/17 02:57:56;;;;;;;4.37;2.10;;;;;;;12.52;86.55;98401.75;18497104;32;20182;-64
2022/07/17 03:07:58;;;;;;;3.70;2.00;;;;;;;12.45;87.21;98409.31;18496186;32;20068;-64
2022/07/17 03:18:01;;;;;;;2.73;2.10;;;;;;;12.32;87.43;98412.50;18496228;32;20049;-64
2022/07/17 03:28:03;;;;;;;3.10;2.00;;;;;;;12.20;87.91;98405.41;18494442;32;20115;-64
2022/07/17 03:38:05;;;;;;;3.37;2.10;;;;;;;12.10;88.22;98410.78;18495481;32;20053;-64
2022/07/17 03:48:08;;;;;;;2.30;1.93;;;;;;;12.02;88.91;98411.25;18502207;32;20057;-65
2022/07/17 03:58:10;;;;;;;3.83;2.40;;;;;;;11.93;88.97;98407.37;18507609;32;20040;-64
2022/07/17 04:08:12;;;;;;;2.13;1.57;;;;;;;11.95;89.90;98413.38;18507334;32;20433;-64
2022/07/17 04:18:22;;;;;;;2.83;1.97;;;;;;;11.87;90.38;98418.16;18506788;32;20480;-64
2022/07/17 04:28:25;;;;;;;2.53;1.97;;;;;;;11.92;90.67;98419.28;18492155;32;20395;-64
2022/07/17 04:38:27;;;;;;;4.10;2.27;;;;;;;12.01;90.40;98413.13;18505662;32;20353;-65
2022/07/17 04:48:29;;;;;;;3.43;1.80;;;;;;;12.24;89.84;98418.44;18504814;32;20090;-64
2022/07/17 04:58:32;;;;;;;2.60;2.20;;;;;;;12.51;89.19;98424.56;18504117;32;20045;-64
2022/07/17 05:08:35;;;;;;;2.47;2.00;;;;;;;12.84;88.36;98411.66;18502644;32;20053;-64
2022/07/17 05:18:37;;;;;;;2.37;2.00;;;;;;;13.21;88.01;98418.81;18503009;32;20045;-64
2022/07/17 05:28:39;;;;;;;4.07;1.90;;;;;;;13.60;87.01;98435.75;18475266;32;20066;-64
2022/07/17 05:38:41;;;;;;;2.30;2.03;;;;;;;13.99;85.83;98449.59;18487636;32;20060;-64
2022/07/17 05:48:44;;;;;;;2.40;1.80;;;;;;;14.45;84.08;98461.50;18501063;32;20065;-64
2022/07/17 05:58:46;;;;;;;2.40;1.90;;;;;;;14.89;83.00;98469.81;18500329;32;20048;-64
2022/07/17 06:08:48;;;;;;;5.93;2.50;;;;;;;15.40;79.65;98470.63;18499545;32;20048;-64
2022/07/17 06:18:50;;;;;;;3.53;2.10;;;;;;;15.91;77.61;98473.03;18499265;32;20045;-64
2022/07/17 06:28:54;;;;;;;2.93;2.50;;;;;;;16.42;75.52;98463.56;18498454;32;20079;-65
2022/07/17 06:38:56;;;;;;;1.95;1.40;;;;;;;17.08;71.42;98480.31;18497949;32;20429;-64
2022/07/17 06:48:58;;;;;;;2.75;1.85;;;;;;;17.79;69.86;98474.94;18483436;32;20479;-65
2022/07/17 06:59:00;;;;;;;6.72;2.70;;;;;;;18.41;67.23;98484.06;18496807;32;20057;-65
2022/07/17 07:09:03;;;;;;;4.68;2.12;;;;;;;18.83;63.19;98468.47;18496569;32;20097;-64
2022/07/17 07:19:06;;;;;;;4.90;2.10;;;;;;;19.28;61.72;98481.53;18468588;32;20441;-64
2022/07/17 07:29:08;;;;;;;3.17;2.07;;;;;;;19.79;60.09;98476.84;18494513;32;20483;-64
2022/07/17 07:39:17;;;;;;;3.15;2.30;;;;;;;20.22;58.89;98486.53;18481307;32;20053;-64
2022/07/17 07:49:20;;;;;;;4.10;2.40;;;;;;;20.65;56.84;98484.00;18495270;32;20071;-64
2022/07/17 07:59:22;;;;;;;2.97;2.17;;;;;;;21.10;54.16;98476.72;18494603;32;20448;-64
2022/07/17 08:09:25;;;;;;;3.37;2.13;;;;;;;21.42;52.68;98494.75;18494552;32;20085;-64
2022/07/17 08:19:27;;;;;;;2.80;2.00;;;;;;;21.92;52.46;98495.44;18494327;32;20060;-64
2022/07/17 08:29:30;;;;;;;3.00;1.93;;;;;;;22.39;50.86;98497.50;18494244;32;20049;-64
2022/07/17 08:39:52;;;;;;;4.67;1.90;;;;;;;22.57;45.15;98498.25;18491221;32;20441;-63
2022/07/17 08:49:55;;;;;;;5.20;2.07;;;;;;;22.84;47.19;98508.88;18504807;32;20088;-64
2022/07/17 08:59:57;;;;;;;;;;;;;;;23.40;46.80;98507.16;18503945;32;20140;-64
2022/07/17 09:10:00;;;;;;;8.00;1.85;;;;;;;23.54;43.67;98523.44;18502811;32;20281;-64
2022/07/17 09:20:03;;;;;;;3.25;1.70;;;;;;;23.92;43.71;98534.38;18501820;32;20057;-64
2022/07/17 09:30:11;;;;;;;2.72;1.70;;;;;;;24.48;44.31;98530.47;18487994;32;20063;-64
2022/07/17 09:50:36;;;;;;;5.83;1.53;;;;;;;25.11;42.59;98521.13;18500209;32;20045;-64
2022/07/17 10:00:39;;;;;;;3.87;1.65;;;;;;;25.47;40.81;98527.81;18500514;32;20076;-64
2022/07/17 10:10:43;;;;;;;3.15;1.85;;;;;;;25.84;41.40;98524.97;18499560;32;20040;-64
2022/07/17 10:20:46;;;;;;;2.47;1.95;;;;;;;26.32;37.64;98520.41;18499170;32;20073;-64
2022/07/17 10:30:50;;;;;;;2.95;1.50;;;;;;;26.63;35.03;98524.41;18499102;32;20144;-63
2022/07/17 10:41:03;;;;;;;5.47;1.83;;;;;;;26.92;38.68;98521.59;18498325;32;20049;-64
2022/07/17 10:51:06;;;;;;;4.93;1.70;;;;;;;27.35;35.54;98517.88;18497309;32;20386;-64
2022/07/17 11:01:20;;;;;;;2.10;1.70;;;;;;;27.68;34.24;98522.19;18483036;32;20057;-63
2022/07/17 11:11:42;;;;;;;5.68;2.28;;;;;;;27.88;35.96;98516.66;18496290;32;20390;-63
2022/07/17 11:21:46;;;;;;;3.78;1.80;;;;;;;28.44;36.21;98497.91;18496104;32;20061;-64
2022/07/17 11:31:55;;;;;;;2.72;1.67;;;;;;;29.05;34.83;98488.62;18495494;32;20053;-64
2022/07/17 11:41:58;;;;;;;3.00;2.00;;;;;;;29.22;33.98;98486.50;18495502;32;20128;-63
2022/07/17 11:52:13;;;;;;;2.87;1.90;;;;;;;29.50;35.71;98476.94;18494855;32;20054;-63
2022/07/17 12:02:19;;;;;;;3.65;2.10;;;;;;;29.65;34.87;98464.81;18494971;32;20057;-64
2022/07/17 12:12:25;;;;;;;2.67;2.22;;;;;;;29.43;32.74;98463.72;18505413;32;20525;-63
2022/07/17 12:22:29;;;;;;;6.03;2.40;;;;;;;30.31;34.11;98460.78;18492209;32;20104;-63
2022/07/17 12:32:40;;;;;;;4.20;2.15;;;;;;;30.78;35.43;98450.91;18505933;32;20093;-63
2022/07/17 12:42:43;;;;;;;5.95;2.50;;;;;;;30.69;31.21;98445.63;18504391;32;20053;-63
2022/07/17 12:52:45;;;;;;;2.40;2.00;;;;;;;30.96;32.52;98430.66;18504695;32;20056;-63
2022/07/17 13:02:49;;;;;;;2.33;1.98;;;;;;;31.74;31.93;98433.13;18489618;32;20091;-63
2022/07/17 13:13:04;;;;;;;2.80;2.08;;;;;;;32.40;30.20;98423.72;18504117;32;20383;-63
2022/07/17 13:23:07;;;;;;;6.72;2.17;;;;;;;33.28;31.64;98436.50;18502319;32;20053;-63
2022/07/17 13:33:10;;;;;;;3.10;2.05;;;;;;;32.81;29.02;98435.72;18502313;32;20053;-63
2022/07/17 13:43:13;;;;;;;3.10;2.05;;;;;;;32.84;29.44;98426.53;18501954;32;20361;-63
2022/07/17 13:53:16;;;;;;;2.47;2.28;;;;;;;33.49;30.31;98418.78;18500871;32;20053;-62
2022/07/17 14:03:22;;;;;;;3.62;2.17;;;;;;;33.86;28.37;98413.84;18499065;32;20144;-62
2022/07/17 14:13:25;;;;;;;3.25;2.03;;;;;;;34.06;27.49;98411.34;18500019;32;20373;-63
2022/07/17 14:23:28;;;;;;;2.80;2.12;;;;;;;34.65;28.48;98410.50;18499220;32;20087;-63
2022/07/17 14:33:31;;;;;;;3.22;2.12;;;;;;;34.69;28.03;98400.03;18484734;32;20076;-63
2022/07/17 14:43:34;;;;;;;2.47;1.90;;;;;;;34.54;27.33;98393.75;18484184;32;20072;-63
2022/07/17 14:53:43;;;;;;;5.60;2.40;;;;;;;34.51;27.95;98391.78;18482627;32;20057;-63
2022/07/17 15:03:46;;;;;;;2.87;2.25;;;;;;;33.86;27.95;98389.38;18496739;32;20101;-62
2022/07/17 15:13:49;;;;;;;6.20;2.40;;;;;;;32.90;28.97;98389.31;18496160;32;20116;-63
2022/07/17 15:23:53;;;;;;;3.95;2.10;;;;;;;31.85;29.75;98393.22;18494797;32;20375;-63
2022/07/17 15:33:55;;;;;;;5.57;2.12;;;;;;;31.06;31.84;98377.69;18495781;32;20172;-62
2022/07/17 15:43:58;;;;;;;2.58;2.20;;;;;;;30.65;31.92;98368.63;18488154;32;20068;-63
2022/07/17 15:54:04;;;;;;;4.70;2.20;;;;;;;30.39;32.46;98362.03;18494034;32;20045;-63
2022/07/17 16:04:07;;;;;;;2.37;1.67;;;;;;;29.96;33.38;98353.28;18507893;32;20066;-63
2022/07/17 16:14:09;;;;;;;6.55;2.25;;;;;;;29.72;34.55;98341.47;18507175;32;20049;-63
2022/07/17 16:24:12;;;;;;;2.17;1.70;;;;;;;29.52;32.96;98338.03;18492446;32;20053;-63
2022/07/17 16:34:14;;;;;;;2.22;2.00;;;;;;;29.26;33.57;98333.38;18505999;32;20071;-63
2022/07/17 16:44:18;;;;;;;2.28;1.90;;;;;;;29.06;33.90;98323.16;18505264;32;20102;-63
2022/07/17 16:54:22;;;;;;;2.47;1.77;;;;;;;29.18;33.18;98333.25;18489830;32;20083;-63
2022/07/17 17:04:25;;;;;;;2.85;1.70;;;;;;;29.64;32.74;98326.63;18503929;32;20057;-63
2022/07/17 17:14:27;;;;;;;3.58;1.80;;;;;;;29.29;33.04;98325.06;18489406;32;20367;-62
2022/07/17 17:24:30;;;;;;;2.37;1.90;;;;;;;28.88;34.89;98322.13;18503067;32;20053;-62
2022/07/17 17:34:34;;;;;;;3.67;1.70;;;;;;;28.38;33.43;98317.41;18502863;32;20083;-63
2022/07/17 17:44:36;;;;;;;4.25;2.00;;;;;;;28.00;34.37;98323.94;18501659;32;20293;-63
2022/07/17 17:54:38;;;;;;;2.67;1.83;;;;;;;27.80;35.40;98315.59;18500681;32;20060;-63
2022/07/17 18:04:41;;;;;;;2.78;1.92;;;;;;;27.51;37.99;98319.84;18500073;32;20053;-63
2022/07/17 18:14:43;;;;;;;1.73;1.58;;;;;;;27.89;36.75;98324.50;18499817;32;20098;-63
2022/07/17 18:24:46;;;;;;;4.03;1.90;;;;;;;27.05;42.05;98326.00;18499175;32;20049;-63
2022/07/17 18:34:48;;;;;;;3.67;2.45;;;;;;;26.13;46.36;98327.06;18484488;32;20053;-62
2022/07/17 18:44:50;;;;;;;3.25;2.25;;;;;;;25.32;49.83;98336.31;18496936;32;20045;-63
2022/07/17 18:54:55;;;;;;;2.87;2.05;;;;;;;24.59;51.77;98340.06;18483120;32;20060;-63
2022/07/17 19:04:58;;;;;;;2.45;1.75;;;;;;;24.03;53.42;98349.69;18482934;32;20116;-63
2022/07/17 19:15:01;;;;;;;2.22;1.45;;;;;;;23.45;53.54;98344.12;18482250;32;20105;-63
2022/07/17 19:25:05;;;;;;;1.95;1.50;;;;;;;22.90;54.21;98357.84;18482063;32;20045;-63
2022/07/17 19:35:08;;;;;;;1.95;1.40;;;;;;;22.34;56.43;98358.00;18495630;32;20406;-63
2022/07/17 19:45:10;;;;;;;3.17;1.30;;;;;;;21.85;57.19;98365.75;18495597;32;20042;-62
2022/07/17 19:55:13;;;;;;;1.50;1.20;;;;;;;21.35;58.13;98369.81;18494705;32;20037;-63
2022/07/17 20:05:15;;;;;;;2.43;1.70;;;;;;;20.88;59.78;98382.22;18480607;32;20045;-62
2022/07/17 20:15:18;;;;;;;2.10;1.40;;;;;;;20.50;60.66;98393.75;18494556;32;20097;-63
2022/07/17 20:25:20;;;;;;;2.57;1.47;;;;;;;20.13;60.43;98406.81;18494443;32;20075;-63
2022/07/17 20:35:29;;;;;;;1.35;1.15;;;;;;;19.79;61.77;98422.75;18505009;32;20049;-63
2022/07/17 20:45:32;;;;;;;1.87;1.50;;;;;;;19.51;61.93;98411.09;18505831;32;20087;-63
2022/07/17 20:55:37;;;;;;;2.57;1.40;;;;;;;19.25;63.12;98416.34;18504644;32;20108;-63
2022/07/17 21:05:40;;;;;;;1.42;1.05;;;;;;;18.95;63.67;98414.00;18503132;32;20071;-63
2022/07/17 21:15:42;;;;;;;1.27;1.10;;;;;;;18.71;63.50;98416.13;18489626;32;20090;-63
2022/07/17 21:25:45;;;;;;;1.60;1.10;;;;;;;18.47;65.03;98425.34;18503053;32;20053;-63
2022/07/17 21:35:47;;;;;;;4.50;1.30;;;;;;;18.24;64.53;98403.31;18488126;32;20105;-63
2022/07/17 21:45:50;;;;;;;1.95;1.27;;;;;;;18.02;66.46;98411.38;18501257;32;20440;-63
2022/07/17 21:55:53;;;;;;;1.07;0.90;;;;;;;17.76;66.29;98412.62;18500257;32;20049;-63
2022/07/17 22:05:56;;;;;;;2.97;1.10;;;;;;;17.53;65.34;98414.34;18500657;32;20102;-63
2022/07/17 22:16:00;;;;;;;1.50;1.20;;;;;;;17.37;67.98;98418.44;18499789;32;20381;-63
2022/07/17 22:26:04;;;;;;;1.40;1.10;;;;;;;17.12;67.61;98425.91;18500168;32;20067;-63
2022/07/17 22:36:06;;;;;;;;;;;;;;;16.92;68.73;98436.00;18484692;32;20041;-63
2022/07/17 22:46:09;;;;;;;1.25;0.88;;;;;;;16.72;68.63;98431.56;18498894;32;20336;-63
2022/07/17 22:56:11;;;;;;;1.65;1.00;;;;;;;16.50;69.65;98428.53;18495828;32;20104;-62
2022/07/17 23:06:15;;;;;;;1.90;1.15;;;;;;;16.32;70.85;98435.56;18482497;32;20089;-63
2022/07/17 23:16:18;;;;;;;;;;;;;;;16.17;71.98;98426.44;18496715;32;20438;-64
2022/07/17 23:26:20;;;;;;;1.80;1.40;;;;;;;16.01;73.42;98433.94;18496362;32;19948;-62
2022/07/17 23:36:22;;;;;;;1.23;0.90;;;;;;;15.87;74.46;98428.34;18481463;32;20339;-63
2022/07/17 23:46:25;;;;;;;1.70;1.10;;;;;;;15.76;73.83;98418.59;18481568;32;20071;-63
2022/07/17 23:56:27;;;;;;;3.47;1.50;;;;;;;15.62;74.46;98431.25;18494853;32;20355;-63
